Time;durP1;ratioP1;P1;durP2;ratioP2;P2;SDS_P1;SDS_P2;PMS_P1;PMS_P2;Temp;Humidity;BMP_temperature;BMP_pressure;BME280_temperature;BME280_humidity;BME280_pressure;Samples;Min_cycle;Max_cycle;Signal;HPM_P1;HPM_P2
2022/12/14 00:04:11;;;;;;;;;;;;;;;-1.36;98.71;97478.53;10238159;28;20093;-57
2022/12/14 00:09:10;;;;;;;1.83;1.73;;;;;;;-1.55;99.20;97480.31;10213043;28;20309;-57
2022/12/14 00:14:09;;;;;;;1.48;1.38;;;;;;;-1.57;98.26;97478.50;10208623;28;20567;-57
2022/12/14 00:19:10;;;;;;;3.72;3.42;;;;;;;-1.53;98.78;97472.75;10203614;28;20473;-57
2022/12/14 00:24:09;;;;;;;1.98;1.45;;;;;;;-1.51;99.02;97488.94;10209115;28;20054;-57
2022/12/14 00:29:08;;;;;;;2.00;1.90;;;;;;;-1.41;99.03;97483.41;10209324;28;20121;-57
2022/12/14 00:34:07;;;;;;;5.85;2.95;;;;;;;-1.47;99.11;97484.06;10211222;28;20041;-57
2022/12/14 00:39:06;;;;;;;3.47;3.15;;;;;;;-1.54;98.46;97488.78;10212607;28;20027;-57
2022/12/14 00:44:05;;;;;;;3.22;2.97;;;;;;;-1.53;98.90;97488.00;10212230;28;20045;-57
2022/12/14 00:49:04;;;;;;;8.90;4.53;;;;;;;-1.52;99.28;97475.31;10200826;28;20098;-57
2022/12/14 00:54:04;;;;;;;2.63;2.40;;;;;;;-1.49;99.04;97470.38;10207440;28;20050;-57
2022/12/14 00:59:03;;;;;;;1.98;1.88;;;;;;;-1.54;98.90;97466.78;10209960;28;20121;-57
2022/12/14 01:04:16;;;;;;;4.45;4.15;;;;;;;-1.55;98.51;97469.25;10211028;28;20149;-57
2022/12/14 01:09:16;;;;;;;6.25;2.25;;;;;;;-1.70;98.62;97469.50;10207766;28;20077;-57
2022/12/14 01:14:17;;;;;;;1.73;1.50;;;;;;;-1.63;98.68;97471.50;10210615;28;20073;-57
2022/12/14 01:19:16;;;;;;;3.95;3.63;;;;;;;-1.60;99.33;97460.56;10204384;28;20133;-57
2022/12/14 01:24:15;;;;;;;7.10;3.88;;;;;;;-1.57;99.83;97461.56;10205241;28;20136;-57
2022/12/14 01:29:15;;;;;;;2.22;2.13;;;;;;;-1.61;99.27;97429.16;10202990;28;20461;-57
2022/12/14 01:34:14;;;;;;;4.85;2.22;;;;;;;-1.41;99.56;97441.84;10200190;28;20122;-58
2022/12/14 01:39:14;;;;;;;;;;;;;;;-1.41;99.31;97450.34;10210351;28;20461;-57
2022/12/14 01:44:13;;;;;;;2.80;2.38;;;;;;;-1.67;99.26;97424.69;10211827;28;19945;-57
2022/12/14 01:49:19;;;;;;;2.22;2.13;;;;;;;-1.75;99.33;97415.88;10199666;28;20057;-58
2022/12/14 01:54:19;;;;;;;5.82;4.90;;;;;;;-1.73;100.00;97410.84;10194782;28;20078;-57
2022/12/14 01:59:24;;;;;;;1.30;1.15;;;;;;;-1.58;100.00;97419.13;10196815;28;20081;-57
2022/12/14 02:04:24;;;;;;;3.25;2.95;;;;;;;-1.71;99.80;97392.28;10188684;28;20134;-58
2022/12/14 02:09:28;;;;;;;1.98;1.83;;;;;;;-1.70;100.00;97396.59;10205920;28;20141;-57
2022/12/14 02:14:27;;;;;;;2.80;2.10;;;;;;;-1.63;100.00;97385.00;10206049;28;20091;-57
2022/12/14 02:19:26;;;;;;;;;;;;;;;-1.63;100.00;97395.16;10206282;28;20130;-58
2022/12/14 02:24:44;;;;;;;5.18;4.55;;;;;;;-1.62;99.63;97386.72;10199318;28;19929;-57
2022/12/14 02:29:55;;;;;;;3.38;3.08;;;;;;;-1.70;99.83;97372.84;10206004;28;20696;-57
2022/12/14 02:34:54;;;;;;;16.65;4.22;;;;;;;-1.93;100.00;97365.13;10206868;28;20062;-57
2022/12/14 02:40:27;;;;;;;1.55;1.50;;;;;;;-2.08;100.00;97360.28;10237122;28;20034;-58
2022/12/14 02:45:38;;;;;;;4.57;3.58;;;;;;;-2.09;100.00;97352.56;10206373;28;20074;-58
2022/12/14 02:51:09;;;;;;;1.98;1.88;;;;;;;-1.96;100.00;97371.75;10187042;28;20086;-58
2022/12/14 02:56:14;;;;;;;2.00;1.77;;;;;;;-1.94;100.00;97357.41;10188606;28;20142;-58
2022/12/14 03:01:15;;;;;;;5.05;3.25;;;;;;;-1.81;100.00;97369.84;10187455;28;20579;-58
2022/12/14 03:06:26;;;;;;;3.13;2.83;;;;;;;-1.86;100.00;97377.28;10223003;28;20070;-58
2022/12/14 03:11:40;;;;;;;1.33;1.33;;;;;;;-1.78;100.00;97362.31;10203339;28;20109;-58
2022/12/14 03:16:46;;;;;;;0.95;0.95;;;;;;;-1.72;100.00;97360.03;10206683;28;20072;-58
2022/12/14 03:22:10;;;;;;;1.60;1.50;;;;;;;-1.65;99.93;97358.63;10206627;28;20078;-58
2022/12/14 03:27:30;;;;;;;3.50;3.22;;;;;;;-1.69;99.53;97356.75;10200841;28;20569;-60
2022/12/14 03:32:31;;;;;;;1.40;1.30;;;;;;;-1.75;99.93;97354.84;10206507;28;20141;-58
2022/12/14 03:37:38;;;;;;;1.52;1.42;;;;;;;-1.68;99.11;97346.66;10209468;28;20070;-58
2022/12/14 03:43:15;;;;;;;2.30;2.20;;;;;;;-1.65;99.24;97356.94;10178047;28;20062;-58
2022/12/14 03:48:30;;;;;;;1.73;1.65;;;;;;;-1.65;98.69;97372.19;10213979;28;20078;-57
2022/12/14 03:53:44;;;;;;;1.80;1.65;;;;;;;-1.61;99.63;97369.78;10174544;28;20067;-58
2022/12/14 03:58:49;;;;;;;4.35;2.72;;;;;;;-1.56;99.25;97375.91;10194557;28;20484;-58
2022/12/14 04:04:09;;;;;;;1.83;1.73;;;;;;;-1.57;99.68;97364.88;10208539;28;20457;-58
2022/12/14 04:09:18;;;;;;;1.65;1.55;;;;;;;-1.53;100.00;97365.88;10199323;28;20445;-58
2022/12/14 04:19:59;;;;;;;4.68;2.95;;;;;;;-1.58;99.66;97380.94;10177498;28;20057;-58
2022/12/14 04:30:23;;;;;;;2.72;2.53;;;;;;;-2.01;100.00;97388.47;10197296;28;20066;-58
2022/12/14 04:35:24;;;;;;;2.88;2.67;;;;;;;-1.95;100.00;97386.22;10214005;28;20066;-58
2022/12/14 04:40:37;;;;;;;2.78;2.03;;;;;;;-1.79;100.00;97364.81;10212875;28;20727;-58
2022/12/14 04:45:45;;;;;;;3.85;3.40;;;;;;;-1.67;100.00;97363.63;10214200;28;20469;-57
2022/12/14 04:50:51;;;;;;;8.00;3.50;;;;;;;-1.49;100.00;97383.00;10181551;28;20063;-58
2022/12/14 04:56:04;;;;;;;2.70;2.55;;;;;;;-1.44;99.79;97381.50;10173511;28;20077;-58
2022/12/14 05:01:18;;;;;;;3.78;3.00;;;;;;;-1.53;99.81;97383.69;10175280;28;20062;-58
2022/12/14 05:06:33;;;;;;;1.60;1.50;;;;;;;-1.68;100.00;97382.25;10173641;28;20089;-58
2022/12/14 05:11:45;;;;;;;5.22;3.47;;;;;;;-1.63;100.00;97369.72;10173873;28;20075;-58
2022/12/14 05:16:44;;;;;;;1.20;1.20;;;;;;;-1.56;100.00;97369.16;10173905;28;20101;-58
2022/12/14 05:21:46;;;;;;;2.60;2.30;;;;;;;-1.44;100.00;97379.81;10173986;28;20061;-58
2022/12/14 05:26:45;;;;;;;11.73;3.40;;;;;;;-1.31;100.00;97393.03;10173480;28;20067;-58
2022/12/14 05:31:44;;;;;;;9.80;4.68;;;;;;;-1.29;100.00;97392.28;10181018;28;20066;-58
2022/12/14 05:36:43;;;;;;;;;;;;;;;-1.25;100.00;97403.47;10178496;28;20449;-57
2022/12/14 05:41:42;;;;;;;2.30;1.73;;;;;;;-1.33;100.00;97415.91;10211214;28;20323;-57
2022/12/14 05:46:41;;;;;;;2.28;2.08;;;;;;;-1.40;100.00;97395.22;10211396;28;20504;-57
2022/12/14 05:51:40;;;;;;;2.65;2.45;;;;;;;-1.34;100.00;97409.06;10205878;28;20516;-57
2022/12/14 05:56:38;;;;;;;2.13;1.95;;;;;;;-1.36;100.00;97413.22;10211136;28;20047;-58
2022/12/14 06:01:37;;;;;;;7.10;5.57;;;;;;;-1.27;100.00;97420.34;10209982;28;20047;-58
2022/12/14 06:06:36;;;;;;;5.07;4.18;;;;;;;-1.13;100.00;97434.50;10208940;28;20850;-58
2022/12/14 06:11:40;;;;;;;4.28;3.20;;;;;;;-1.12;100.00;97420.06;10210995;28;20865;-58
2022/12/14 06:16:40;;;;;;;5.03;4.15;;;;;;;-0.98;100.00;97433.34;10199144;28;20082;-58
2022/12/14 06:21:41;;;;;;;1.83;1.65;;;;;;;-0.97;100.00;97422.38;10208034;28;20050;-58
2022/12/14 06:26:40;;;;;;;3.10;2.83;;;;;;;-0.97;100.00;97410.50;10203686;28;20073;-58
2022/12/14 06:31:39;;;;;;;2.30;2.13;;;;;;;-1.04;100.00;97404.28;10208330;28;20074;-58
2022/12/14 06:36:41;;;;;;;2.05;1.95;;;;;;;-0.93;100.00;97411.47;10208912;28;20041;-58
2022/12/14 06:41:40;;;;;;;5.40;3.92;;;;;;;-0.72;100.00;97436.88;10208418;28;20050;-58
2022/12/14 06:46:39;;;;;;;3.90;2.10;;;;;;;-0.70;100.00;97419.97;10201702;28;20069;-58
2022/12/14 06:51:39;;;;;;;;;;;;;;;-0.77;100.00;97429.06;10174822;28;20222;-59
2022/12/14 06:56:39;;;;;;;8.13;4.47;;;;;;;-0.71;100.00;97439.50;10205737;28;19954;-58
2022/12/14 07:01:39;;;;;;;2.13;2.00;;;;;;;-0.67;100.00;97440.50;10202294;28;20138;-58
2022/12/14 07:06:39;;;;;;;2.75;2.50;;;;;;;-0.54;100.00;97440.13;10202717;28;20473;-57
2022/12/14 07:11:39;;;;;;;7.93;4.15;;;;;;;-0.39;100.00;97448.34;10201492;28;20121;-58
2022/12/14 07:16:37;;;;;;;;;;;;;;;-0.16;100.00;97444.09;10210502;28;20070;-57
2022/12/14 07:21:36;;;;;;;3.47;3.17;;;;;;;-0.10;100.00;97447.66;10212212;28;19957;-57
2022/12/14 07:26:36;;;;;;;3.72;3.38;;;;;;;0.10;99.77;97436.50;10207444;28;20043;-58
2022/12/14 07:31:35;;;;;;;3.22;2.90;;;;;;;0.16;99.58;97423.94;10212585;28;20513;-58
2022/12/14 07:36:34;;;;;;;4.35;4.00;;;;;;;0.15;99.33;97421.34;10213242;28;20070;-59
2022/12/14 07:41:33;;;;;;;3.25;2.95;;;;;;;0.12;99.30;97433.97;10212409;28;20062;-59
2022/12/14 07:46:32;;;;;;;4.80;3.47;;;;;;;-0.14;99.35;97430.50;10209015;28;20752;-59
2022/12/14 07:51:36;;;;;;;3.55;3.25;;;;;;;-0.03;99.28;97437.72;10212165;28;20023;-60
2022/12/14 07:56:39;;;;;;;4.15;2.60;;;;;;;0.01;99.66;97439.59;10208645;28;20112;-57
2022/12/14 08:01:38;;;;;;;3.65;2.60;;;;;;;0.08;99.34;97447.44;10210826;28;20074;-57
2022/12/14 08:06:38;;;;;;;3.47;3.20;;;;;;;0.10;99.60;97444.16;10208352;28;20049;-57
2022/12/14 08:11:38;;;;;;;3.28;3.08;;;;;;;0.25;99.29;97462.53;10210085;28;20134;-57
2022/12/14 08:16:38;;;;;;;9.65;5.60;;;;;;;0.39;99.00;97447.69;10206252;28;20074;-58
2022/12/14 08:21:37;;;;;;;4.15;3.83;;;;;;;0.35;99.38;97435.63;10212034;28;20073;-58
2022/12/14 08:26:36;;;;;;;3.13;2.88;;;;;;;0.57;99.29;97459.31;10212148;28;20496;-59
2022/12/14 08:31:35;;;;;;;6.93;2.10;;;;;;;0.75;98.55;97466.72;10209937;28;20472;-57
2022/12/14 08:36:34;;;;;;;2.95;2.75;;;;;;;0.58;98.20;97448.31;10209634;28;20540;-57
2022/12/14 08:41:33;;;;;;;;;;;;;;;0.52;97.35;97465.97;10211682;28;20071;-58
2022/12/14 08:46:33;;;;;;;4.40;4.00;;;;;;;0.45;97.70;97473.44;10210487;28;19914;-58
2022/12/14 08:51:36;;;;;;;1.35;1.35;;;;;;;0.66;98.24;97472.38;10208176;28;20069;-58
2022/12/14 08:56:35;;;;;;;2.20;2.10;;;;;;;0.71;97.09;97467.44;10207979;28;20074;-58
2022/12/14 09:01:34;;;;;;;2.53;2.33;;;;;;;0.71;97.45;97453.00;10210075;28;20051;-59
2022/12/14 09:06:36;;;;;;;1.40;1.30;;;;;;;0.82;96.99;97450.78;10207279;28;20053;-58
2022/12/14 09:11:36;;;;;;;2.08;1.98;;;;;;;0.93;96.51;97448.59;10210394;28;20750;-58
2022/12/14 09:16:35;;;;;;;;;;;;;;;1.05;95.89;97439.59;10204231;28;20767;-59
2022/12/14 09:21:34;;;;;;;0.75;0.75;;;;;;;1.11;95.62;97426.16;10209335;28;20289;-58
2022/12/14 09:26:33;;;;;;;2.47;2.33;;;;;;;1.02;96.38;97415.66;10205645;28;20054;-58
2022/12/14 09:31:32;;;;;;;28.65;5.55;;;;;;;0.97;96.02;97417.22;10209432;28;20026;-58
2022/12/14 09:36:31;;;;;;;3.33;3.13;;;;;;;1.09;96.99;97423.53;10209482;28;20137;-57
2022/12/14 09:41:32;;;;;;;2.97;1.48;;;;;;;1.21;97.39;97405.16;10209470;28;20067;-58
2022/12/14 09:46:46;;;;;;;2.58;2.42;;;;;;;1.38;97.20;97415.03;10205259;28;20057;-58
2022/12/14 09:51:45;;;;;;;2.17;2.03;;;;;;;1.72;96.93;97407.50;10201005;28;20519;-59
2022/12/14 09:56:44;;;;;;;3.30;3.03;;;;;;;2.11;94.67;97405.97;10205836;28;20062;-58
2022/12/14 10:01:52;;;;;;;4.03;3.33;;;;;;;2.06;94.88;97399.88;10208915;28;20070;-57
2022/12/14 10:07:00;;;;;;;2.47;2.30;;;;;;;1.78;94.23;97390.59;10197659;28;20118;-57
2022/12/14 10:12:29;;;;;;;1.88;1.77;;;;;;;2.07;96.68;97373.47;10204193;28;20153;-58
2022/12/14 10:17:59;;;;;;;6.25;5.65;;;;;;;2.17;95.61;97366.03;10204483;28;20133;-57
2022/12/14 10:23:00;;;;;;;3.33;2.50;;;;;;;2.03;94.69;97382.75;10205989;28;20110;-58
2022/12/14 10:28:04;;;;;;;2.75;2.55;;;;;;;2.19;94.83;97371.22;10208269;28;20768;-57
2022/12/14 10:33:20;;;;;;;3.50;2.70;;;;;;;2.31;92.79;97363.84;10204684;28;20154;-57
2022/12/14 10:38:26;;;;;;;7.15;1.70;;;;;;;2.30;95.29;97358.66;10211837;28;20073;-57
2022/12/14 10:43:43;;;;;;;2.67;2.42;;;;;;;2.22;94.71;97353.38;10208819;28;20071;-57
2022/12/14 10:48:54;;;;;;;8.00;4.82;;;;;;;2.34;96.04;97337.44;10201598;28;20133;-56
2022/12/14 10:53:59;;;;;;;1.35;1.05;;;;;;;2.39;95.37;97333.28;10202893;28;20133;-56
2022/12/14 10:59:10;;;;;;;2.33;1.77;;;;;;;2.14;95.59;97329.28;10186625;28;20078;-57
2022/12/14 11:04:29;;;;;;;2.20;2.08;;;;;;;2.09;96.30;97321.50;10207282;28;20126;-57
2022/12/14 11:09:29;;;;;;;1.70;1.60;;;;;;;2.32;97.16;97314.34;10205017;28;20125;-58
2022/12/14 11:14:28;;;;;;;8.85;3.25;;;;;;;2.44;96.96;97316.38;10207239;28;20047;-56
2022/12/14 11:19:28;;;;;;;;;;;;;;;2.42;94.63;97304.31;10207594;28;20125;-56
2022/12/14 11:24:28;;;;;;;3.45;3.17;;;;;;;2.44;97.34;97303.56;10206042;28;19980;-56
2022/12/14 11:29:36;;;;;;;1.70;1.60;;;;;;;2.72;97.17;97299.03;10220224;28;20058;-56
2022/12/14 11:34:39;;;;;;;2.13;1.98;;;;;;;2.61;93.86;97290.28;10206969;28;20134;-56
2022/12/14 11:39:41;;;;;;;1.25;1.25;;;;;;;2.56;95.83;97293.59;10174650;28;20075;-57
2022/12/14 11:44:41;;;;;;;6.25;1.83;;;;;;;2.68;94.10;97272.50;10201796;28;20050;-57
2022/12/14 11:49:39;;;;;;;7.45;1.98;;;;;;;2.53;94.53;97272.16;10169476;28;20833;-57
2022/12/14 11:54:40;;;;;;;5.82;2.70;;;;;;;2.63;95.62;97268.09;10203726;28;20035;-57
2022/12/14 11:59:52;;;;;;;1.35;0.95;;;;;;;2.78;94.70;97277.00;10212627;28;20073;-57
2022/12/14 12:05:14;;;;;;;1.73;1.63;;;;;;;2.92;93.78;97256.78;10188296;28;20514;-57
2022/12/14 12:10:21;;;;;;;1.52;1.42;;;;;;;3.15;95.34;97258.97;10211728;28;20063;-57
2022/12/14 12:15:39;;;;;;;1.10;1.08;;;;;;;3.19;90.42;97255.63;10206720;28;20122;-57
2022/12/14 12:21:04;;;;;;;1.15;1.08;;;;;;;3.09;93.07;97269.09;10214941;28;20073;-58
2022/12/14 12:26:32;;;;;;;3.78;3.20;;;;;;;3.09;93.09;97258.84;10206656;28;20560;-57
2022/12/14 12:31:53;;;;;;;2.80;2.42;;;;;;;2.94;93.38;97257.69;10210684;28;20077;-57
2022/12/14 12:36:56;;;;;;;4.07;2.70;;;;;;;3.04;95.15;97269.00;10212483;28;20066;-57
2022/12/14 12:42:23;;;;;;;3.20;1.75;;;;;;;2.91;95.42;97265.31;10212758;28;20067;-57
2022/12/14 12:47:39;;;;;;;1.45;1.35;;;;;;;2.75;95.07;97258.16;10204624;28;20069;-57
2022/12/14 12:53:01;;;;;;;1.90;1.73;;;;;;;2.62;92.28;97251.00;10227661;28;20074;-57
2022/12/14 12:58:03;;;;;;;1.50;1.40;;;;;;;2.54;94.71;97259.41;10205478;28;20065;-57
2022/12/14 13:03:17;;;;;;;1.63;1.60;;;;;;;2.69;95.44;97263.13;10205223;28;20154;-57
2022/12/14 13:08:27;;;;;;;5.50;2.65;;;;;;;2.57;95.42;97274.81;10204906;28;20066;-57
2022/12/14 13:13:30;;;;;;;2.00;1.90;;;;;;;2.65;95.60;97272.41;10210763;28;20091;-57
2022/12/14 13:18:36;;;;;;;2.15;1.95;;;;;;;2.69;94.93;97270.81;10193724;28;20070;-56
2022/12/14 13:23:35;;;;;;;1.77;1.67;;;;;;;2.70;96.20;97275.09;10204882;28;20065;-56
2022/12/14 13:28:49;;;;;;;1.17;1.17;;;;;;;2.32;94.62;97265.69;10206335;28;20073;-56
2022/12/14 13:34:13;;;;;;;0.65;0.65;;;;;;;2.25;95.65;97256.16;10211887;28;20854;-56
2022/12/14 13:39:39;;;;;;;5.32;3.05;;;;;;;2.44;96.52;97256.56;10203885;28;20469;-56
2022/12/14 13:44:48;;;;;;;1.65;1.58;;;;;;;2.58;95.54;97260.31;10211000;28;20062;-56
2022/12/14 13:49:53;;;;;;;1.73;1.63;;;;;;;2.52;94.80;97245.69;10205243;28;20071;-57
2022/12/14 13:54:52;;;;;;;1.45;1.35;;;;;;;2.55;94.55;97255.13;10210315;28;20077;-57
2022/12/14 13:59:53;;;;;;;3.42;2.78;;;;;;;2.50;95.35;97247.34;10199307;28;20042;-56
2022/12/14 14:05:14;;;;;;;2.45;2.15;;;;;;;2.45;93.93;97232.72;10208098;28;20074;-56
2022/12/14 14:10:36;;;;;;;2.17;2.08;;;;;;;2.45;94.70;97227.59;10203762;28;20844;-56
2022/12/14 14:15:47;;;;;;;0.82;0.82;;;;;;;2.38;95.93;97230.00;10204105;28;20524;-57
2022/12/14 14:20:52;;;;;;;1.92;1.83;;;;;;;2.38;95.98;97226.59;10209109;28;20558;-57
2022/12/14 14:26:14;;;;;;;4.03;2.42;;;;;;;2.38;96.08;97218.91;10194305;28;20078;-55
2022/12/14 14:31:13;;;;;;;2.22;1.67;;;;;;;2.32;96.33;97208.50;10207456;28;20082;-58
2022/12/14 14:36:35;;;;;;;1.05;1.00;;;;;;;2.15;96.08;97188.53;10208218;28;20120;-57
2022/12/14 14:41:41;;;;;;;2.30;2.08;;;;;;;2.15;95.73;97191.09;10209562;28;20434;-56
2022/12/14 14:46:44;;;;;;;0.60;0.60;;;;;;;2.08;95.18;97181.53;10208508;28;20077;-57
2022/12/14 14:51:43;;;;;;;2.17;1.20;;;;;;;1.95;94.45;97169.31;10200800;28;20082;-57
2022/12/14 14:56:50;;;;;;;0.50;0.50;;;;;;;1.78;93.63;97185.94;10209221;28;20066;-57
2022/12/14 15:01:55;;;;;;;1.27;0.88;;;;;;;1.73;92.76;97181.56;10205609;28;20077;-57
2022/12/14 15:07:01;;;;;;;0.93;0.80;;;;;;;1.68;91.94;97170.38;10202608;28;20073;-57
2022/12/14 15:12:06;;;;;;;5.40;1.60;;;;;;;1.68;91.98;97184.84;10207038;28;20058;-57
2022/12/14 15:17:20;;;;;;;0.47;0.47;;;;;;;1.59;89.91;97174.41;10196620;28;21444;-57
2022/12/14 15:22:23;;;;;;;0.73;0.73;;;;;;;1.63;91.17;97165.97;10201325;28;20142;-57
2022/12/14 15:27:26;;;;;;;2.15;1.70;;;;;;;1.70;91.84;97167.84;10205688;28;20062;-57
2022/12/14 15:32:25;;;;;;;0.85;0.85;;;;;;;1.69;91.44;97153.31;10208541;28;20074;-57
2022/12/14 15:37:45;;;;;;;1.55;1.45;;;;;;;1.69;91.68;97151.66;10194384;28;20122;-57
2022/12/14 15:42:46;;;;;;;0.98;0.98;;;;;;;1.73;91.93;97144.91;10210823;28;20058;-57
2022/12/14 15:47:45;;;;;;;1.33;1.27;;;;;;;1.84;93.52;97156.25;10210910;28;20537;-57
2022/12/14 15:52:46;;;;;;;2.22;2.05;;;;;;;1.82;92.93;97150.22;10212387;28;20739;-57
2022/12/14 15:57:45;;;;;;;1.60;1.50;;;;;;;1.70;94.96;97162.75;10205810;28;20058;-57
2022/12/14 16:02:44;;;;;;;;;;;;;;;1.68;93.38;97165.25;10203541;28;20086;-57
2022/12/14 16:07:46;;;;;;;3.28;3.00;;;;;;;1.70;93.72;97178.09;10213045;28;19914;-57
2022/12/14 16:12:48;;;;;;;1.52;1.42;;;;;;;1.71;92.01;97187.47;10207268;28;20560;-57
2022/12/14 16:17:49;;;;;;;1.10;0.98;;;;;;;1.73;90.02;97184.13;10212009;28;20113;-57
2022/12/14 16:22:58;;;;;;;1.02;1.02;;;;;;;1.79;91.49;97211.56;10212371;28;20066;-57
2022/12/14 16:28:19;;;;;;;0.95;0.95;;;;;;;1.82;91.05;97193.72;10214571;28;20070;-57
2022/12/14 16:33:21;;;;;;;1.10;1.10;;;;;;;1.86;91.57;97189.56;10213898;28;20117;-56
2022/12/14 16:38:20;;;;;;;0.55;0.55;;;;;;;1.81;87.75;97178.31;10211593;28;20054;-57
2022/12/14 16:43:27;;;;;;;;;;;;;;;1.85;90.00;97172.47;10208853;28;20058;-57
2022/12/14 16:48:27;;;;;;;1.58;1.48;;;;;;;1.98;91.02;97168.50;10199084;28;19952;-56
2022/12/14 16:53:30;;;;;;;1.40;1.30;;;;;;;2.07;91.25;97172.16;10212150;28;20074;-56
2022/12/14 16:58:30;;;;;;;1.30;1.25;;;;;;;2.02;92.42;97165.16;10205572;28;20126;-56
2022/12/14 17:03:30;;;;;;;3.83;3.15;;;;;;;1.97;92.59;97154.81;10210974;28;20830;-57
2022/12/14 17:08:29;;;;;;;2.10;1.88;;;;;;;1.91;93.06;97139.34;10211455;28;20109;-57
2022/12/14 17:13:28;;;;;;;2.50;2.28;;;;;;;1.88;94.27;97152.94;10195623;28;20071;-57
2022/12/14 17:18:37;;;;;;;6.40;2.17;;;;;;;1.87;94.76;97155.47;10205024;28;20046;-57
2022/12/14 17:23:40;;;;;;;2.92;2.47;;;;;;;1.86;95.71;97163.97;10194732;28;20055;-57
2022/12/14 17:28:39;;;;;;;4.05;2.03;;;;;;;1.84;96.17;97170.75;10204872;28;20062;-57
2022/12/14 17:33:38;;;;;;;2.95;1.98;;;;;;;1.59;96.18;97179.50;10193170;28;20030;-57
2022/12/14 17:38:37;;;;;;;3.47;2.45;;;;;;;1.57;95.42;97171.78;10209210;28;20061;-57
2022/12/14 17:43:36;;;;;;;28.73;17.55;;;;;;;1.66;95.05;97166.91;10207822;28;20042;-57
2022/12/14 17:48:36;;;;;;;35.33;22.80;;;;;;;1.70;94.02;97168.72;10205897;28;20047;-57
2022/12/14 17:53:35;;;;;;;24.45;14.63;;;;;;;1.63;94.64;97165.97;10209986;28;20066;-57
2022/12/14 17:58:34;;;;;;;34.95;18.85;;;;;;;1.64;93.67;97163.44;10200574;28;20065;-57
2022/12/14 18:03:36;;;;;;;22.75;14.13;;;;;;;1.73;92.92;97150.88;10209803;28;20232;-57
2022/12/14 18:08:35;;;;;;;21.08;14.32;;;;;;;1.76;92.60;97137.28;10197205;28;20700;-57
2022/12/14 18:13:35;;;;;;;20.50;13.50;;;;;;;1.83;92.97;97125.50;10201197;28;20470;-56
2022/12/14 18:18:34;;;;;;;26.42;16.73;;;;;;;1.95;93.09;97133.50;10220688;28;20069;-56
2022/12/14 18:23:33;;;;;;;28.45;17.42;;;;;;;2.00;92.88;97121.66;10203505;28;20031;-56
2022/12/14 18:28:32;;;;;;;30.48;16.90;;;;;;;1.92;93.22;97118.03;10205891;28;20034;-56
2022/12/14 18:33:33;;;;;;;;;;;;;;;1.87;93.40;97119.63;10203530;28;20126;-56
2022/12/14 18:38:32;;;;;;;22.40;15.35;;;;;;;1.92;94.19;97110.38;10207503;28;19949;-56
2022/12/14 18:43:31;;;;;;;32.45;19.75;;;;;;;1.85;94.00;97105.94;10206785;28;20062;-56
2022/12/14 18:48:31;;;;;;;34.33;20.38;;;;;;;1.90;93.39;97106.91;10205038;28;20069;-56
2022/12/14 18:53:30;;;;;;;33.35;22.23;;;;;;;1.85;93.97;97098.28;10219466;28;20070;-56
2022/12/14 18:58:29;;;;;;;30.73;19.73;;;;;;;1.75;94.16;97090.38;10207484;28;20058;-56
2022/12/14 19:03:30;;;;;;;27.70;17.42;;;;;;;1.70;94.60;97094.53;10206652;28;20081;-56
2022/12/14 19:08:29;;;;;;;24.20;15.35;;;;;;;1.86;94.77;97092.34;10197427;28;20515;-56
2022/12/14 19:13:28;;;;;;;19.65;13.07;;;;;;;1.86;93.70;97077.00;10217536;28;20074;-56
2022/12/14 19:18:27;;;;;;;25.52;15.13;;;;;;;1.78;92.96;97058.03;10215252;28;20058;-56
2022/12/14 19:23:27;;;;;;;22.90;15.10;;;;;;;1.82;92.95;97030.00;10214286;28;20214;-56
2022/12/14 19:28:29;;;;;;;26.17;16.77;;;;;;;1.98;93.63;97040.56;10211288;28;20881;-56
2022/12/14 19:33:28;;;;;;;29.02;19.42;;;;;;;1.89;93.58;97041.22;10215438;28;20464;-56
2022/12/14 19:38:28;;;;;;;35.85;20.73;;;;;;;1.86;93.67;97046.28;10215097;28;20693;-57
2022/12/14 19:43:28;;;;;;;25.38;16.38;;;;;;;1.68;94.32;97037.38;10214168;28;20477;-57
2022/12/14 19:48:26;;;;;;;30.30;19.40;;;;;;;1.69;94.51;97010.97;10214065;28;20073;-57
2022/12/14 19:53:30;;;;;;;33.45;21.73;;;;;;;1.74;95.70;97011.09;10206949;28;20030;-57
2022/12/14 19:58:29;;;;;;;34.85;22.25;;;;;;;1.83;95.68;96995.03;10211740;28;20089;-57
2022/12/14 20:03:28;;;;;;;45.80;26.80;;;;;;;1.91;95.77;96989.25;10203676;28;20473;-57
2022/12/14 20:08:29;;;;;;;48.33;30.48;;;;;;;1.95;95.78;96962.06;10213340;28;20390;-57
2022/12/14 20:13:29;;;;;;;34.97;23.10;;;;;;;1.82;96.56;96975.41;10203445;28;20070;-57
2022/12/14 20:18:30;;;;;;;33.58;22.90;;;;;;;1.82;97.04;96953.25;10212002;28;20074;-57
2022/12/14 20:23:31;;;;;;;34.30;21.00;;;;;;;1.68;97.49;96954.66;10213385;28;20062;-57
2022/12/14 20:28:30;;;;;;;39.90;22.75;;;;;;;1.59;98.17;96959.59;10190252;28;20081;-57
2022/12/14 20:33:29;;;;;;;42.85;29.25;;;;;;;1.44;99.00;96926.91;10212692;28;20066;-57
2022/12/14 20:38:28;;;;;;;33.20;21.80;;;;;;;1.37;99.23;96928.47;10209994;28;20042;-57
2022/12/14 20:43:31;;;;;;;85.40;48.17;;;;;;;1.44;99.32;96914.13;10204459;28;20038;-57
2022/12/14 20:48:31;;;;;;;41.05;26.45;;;;;;;1.53;99.03;96910.06;10203180;28;20062;-57
2022/12/14 20:53:30;;;;;;;51.38;29.92;;;;;;;1.54;99.46;96900.69;10194695;28;20516;-57
2022/12/14 20:58:29;;;;;;;;;;;;;;;1.54;99.65;96908.34;10210242;28;20074;-57
2022/12/14 21:03:28;;;;;;;78.05;50.03;;;;;;;1.52;99.82;96895.53;10209051;28;19924;-56
2022/12/14 21:08:27;;;;;;;111.40;64.82;;;;;;;1.41;100.00;96898.69;10203553;28;20142;-57
2022/12/14 21:13:26;;;;;;;;;;;;;;;1.30;100.00;96875.50;10209795;28;20114;-57
2022/12/14 21:18:25;;;;;;;65.88;39.75;;;;;;;1.34;100.00;96890.03;10208212;28;19921;-56
2022/12/14 21:23:24;;;;;;;76.25;47.53;;;;;;;1.40;100.00;96886.75;10224639;28;20038;-57
2022/12/14 21:28:23;;;;;;;91.75;57.45;;;;;;;1.43;100.00;96886.81;10205493;28;20480;-57
2022/12/14 21:33:22;;;;;;;97.18;61.35;;;;;;;1.31;100.00;96895.09;10209306;28;20097;-56
2022/12/14 21:38:21;;;;;;;80.93;46.53;;;;;;;1.03;100.00;96891.94;10204868;28;20045;-56
2022/12/14 21:43:20;;;;;;;75.53;45.72;;;;;;;0.98;100.00;96892.66;10210001;28;20031;-56
2022/12/14 21:48:19;;;;;;;54.17;32.70;;;;;;;1.03;100.00;96873.19;10205442;28;20462;-56
2022/12/14 21:53:18;;;;;;;52.70;32.42;;;;;;;1.08;100.00;96874.16;10210317;28;20454;-56
2022/12/14 21:58:17;;;;;;;93.97;57.63;;;;;;;1.08;100.00;96861.38;10205026;28;20133;-57
2022/12/14 22:03:15;;;;;;;59.65;37.55;;;;;;;1.16;100.00;96859.84;10207977;28;20039;-56
2022/12/14 22:08:14;;;;;;;44.58;26.58;;;;;;;1.28;100.00;96857.56;10203931;28;20018;-56
2022/12/14 22:13:13;;;;;;;45.83;29.38;;;;;;;1.38;100.00;96855.19;10209822;28;20035;-56
2022/12/14 22:18:12;;;;;;;51.70;31.52;;;;;;;1.46;100.00;96857.06;10206762;28;20113;-57
2022/12/14 22:23:11;;;;;;;51.42;32.63;;;;;;;1.50;100.00;96845.19;10209412;28;20552;-56
2022/12/14 22:28:10;;;;;;;53.50;33.20;;;;;;;1.61;100.00;96848.84;10195185;28;20503;-56
2022/12/14 22:33:09;;;;;;;138.18;96.93;;;;;;;1.45;100.00;96846.81;10208885;28;20041;-56
2022/12/14 22:38:08;;;;;;;52.17;35.13;;;;;;;1.28;100.00;96791.09;10198913;28;20041;-56
2022/12/14 22:43:07;;;;;;;83.53;53.08;;;;;;;1.27;100.00;96779.16;10184572;28;20121;-56
2022/12/14 22:48:06;;;;;;;81.93;51.05;;;;;;;1.19;100.00;96801.13;10198236;28;20110;-56
2022/12/14 22:53:05;;;;;;;67.68;40.75;;;;;;;1.12;100.00;96786.50;10207663;28;20504;-57
2022/12/14 22:58:08;;;;;;;64.75;36.35;;;;;;;1.09;100.00;96789.88;10206511;28;20041;-57
2022/12/14 23:03:08;;;;;;;67.57;40.72;;;;;;;1.15;100.00;96793.38;10202057;28;20074;-56
2022/12/14 23:08:07;;;;;;;68.43;40.55;;;;;;;1.16;100.00;96772.97;10204413;28;20477;-56
